Brendelen — EINR — position and weather

sailwx.info

Track history (hours):
 
Tides and Currents Weather Stations Pressure Air Temp Water Temp Dewpoint Dewpoint Depression Visibility Wind Speed Wind Dir Waves Ship Positions

Brendelen

Last reported at 2014-Oct-21 19:18 UTC. Time now 2014-Oct-24 23:50 UTC.
Position N 51°37' W 009°56'.

Length 64 m; draft 7.8 m.

Type: Fishing. MMSI: 250512000.

Date/timePositionNaut miles runAvg speedWind from/ knotsBaromVisibWave heightAir tempDewpointWater temp
2014-Oct-21 19:18N 51°37' W 009°56'0 0.3
2014-Oct-21 18:33N 51°37' W 009°56'2 1.8
2014-Oct-21 17:33N 51°38' W 009°54'1 0.6
2014-Oct-21 16:33N 51°39' W 009°53'141 9.9
2014-Oct-21 02:20N 53°57' W 010°38'14 7.9
2014-Oct-21 00:33N 54°09' W 010°26'66 9.0
2014-Oct-20 17:11N 54°33' W 008°40'711.6
2014-Oct-20 16:34N 54°36' W 008°29'3 2.6
2014-Oct-20 15:33N 54°38' W 008°27'0 0.0
2014-Oct-20 14:34N 54°38' W 008°27'0 0.0
2014-Oct-20 13:33N 54°38' W 008°27'0 0.0
2014-Oct-20 12:33N 54°38' W 008°27'0 0.0
2014-Oct-20 11:33N 54°38' W 008°27'0 0.0
2014-Oct-20 10:33N 54°38' W 008°27'0 0.0
2014-Oct-20 09:33N 54°38' W 008°27'0 0.0
2014-Oct-20 08:33N 54°38' W 008°27'0 0.0
2014-Oct-20 07:33N 54°38' W 008°27'0 0.0
2014-Oct-20 06:33N 54°38' W 008°27'0 0.0
2014-Oct-20 05:33N 54°38' W 008°27'0 0.0
2014-Oct-20 04:33N 54°38' W 008°27'0 0.0
2014-Oct-20 03:33N 54°38' W 008°27'0 0.0
2014-Oct-20 02:34N 54°38' W 008°27'0 0.0
2014-Oct-20 01:33N 54°38' W 008°27'0 0.0
2014-Oct-20 00:33N 54°38' W 008°27'0 0.0
2014-Oct-19 23:33N 54°38' W 008°27'0 0.0
2014-Oct-19 22:33N 54°38' W 008°27'0 0.0
2014-Oct-19 21:33N 54°38' W 008°27'0 0.0
2014-Oct-19 20:33N 54°38' W 008°27'0 0.0
2014-Oct-19 19:33N 54°38' W 008°27'0 0.0
2014-Oct-19 18:33N 54°38' W 008°27'0 0.0
2014-Oct-19 17:33N 54°38' W 008°27'0 0.0
2014-Oct-19 16:33N 54°38' W 008°27'0 0.0
2014-Oct-19 15:33N 54°38' W 008°27'0 0.0
2014-Oct-19 14:33N 54°38' W 008°27'0 0.0
2014-Oct-19 13:33N 54°38' W 008°27'0 0.0
2014-Oct-19 12:33N 54°38' W 008°27'0 0.0
2014-Oct-19 11:33N 54°38' W 008°27'0 0.0
2014-Oct-19 10:33N 54°38' W 008°27'0 0.0
2014-Oct-19 09:33N 54°38' W 008°27'0 0.0
2014-Oct-19 08:33N 54°38' W 008°27'0 0.0
2014-Oct-19 07:33N 54°38' W 008°27'0 0.0
2014-Oct-19 06:33N 54°38' W 008°27'0 0.0
2014-Oct-19 05:32N 54°38' W 008°27'0 0.0
2014-Oct-19 04:33N 54°38' W 008°27'0 0.0
2014-Oct-19 03:33N 54°38' W 008°27'0 0.0
2014-Oct-19 02:33N 54°38' W 008°27'0 0.0
2014-Oct-19 01:33N 54°38' W 008°27'0 0.0
2014-Oct-19 00:33N 54°38' W 008°27'0 0.0
2014-Oct-18 23:34N 54°38' W 008°27'0 0.0
2014-Oct-18 22:33N 54°38' W 008°27'0 0.0
2014-Oct-18 21:33N 54°38' W 008°27'0 0.0
2014-Oct-18 20:33N 54°38' W 008°27'0 0.0
2014-Oct-18 19:33N 54°38' W 008°27'0 0.0
2014-Oct-18 18:33N 54°38' W 008°27'0 0.0
2014-Oct-18 17:33N 54°38' W 008°27'0 0.0
2014-Oct-18 16:33N 54°38' W 008°27'0 0.0
2014-Oct-18 15:33N 54°38' W 008°27'0 0.0
2014-Oct-18 14:33N 54°38' W 008°27'0 0.0
2014-Oct-18 13:33N 54°38' W 008°27'0 0.0
2014-Oct-18 12:33N 54°38' W 008°27'0 0.0
2014-Oct-18 11:34N 54°38' W 008°27'0 0.0
2014-Oct-18 10:33N 54°38' W 008°27'0 0.0
2014-Oct-18 09:33N 54°38' W 008°27'0 0.0
2014-Oct-18 08:33N 54°38' W 008°27'0 0.0
2014-Oct-18 07:33N 54°38' W 008°27'0 0.0
2014-Oct-18 06:34N 54°38' W 008°27'0 0.0
2014-Oct-18 05:33N 54°38' W 008°27'0 0.0
2014-Oct-18 04:33N 54°38' W 008°27'0 0.0
2014-Oct-18 03:33N 54°38' W 008°27'0 0.0
2014-Oct-18 02:33N 54°38' W 008°27'0 0.0
2014-Oct-18 01:33N 54°38' W 008°27'0 0.0
2014-Oct-18 00:33N 54°38' W 008°27'0 0.0
2014-Oct-17 23:33N 54°38' W 008°27'0 0.0
2014-Oct-17 22:33N 54°38' W 008°27'0 0.0
2014-Oct-17 21:33N 54°38' W 008°27'0 0.0
2014-Oct-17 20:34N 54°38' W 008°27'0 0.0
2014-Oct-17 19:33N 54°38' W 008°27'0 0.0
2014-Oct-17 18:33N 54°38' W 008°27'0 0.0
2014-Oct-17 17:33N 54°38' W 008°27'0 0.0
2014-Oct-17 16:33N 54°38' W 008°27'0 0.0
2014-Oct-17 15:34N 54°38' W 008°27'0 0.0
2014-Oct-17 14:33N 54°38' W 008°27'0 0.0
2014-Oct-17 13:33N 54°38' W 008°27'0 0.0
2014-Oct-17 12:33N 54°38' W 008°27'0 0.0
2014-Oct-17 11:33N 54°38' W 008°27'0 0.4
2014-Oct-17 10:33N 54°38' W 008°26'0 0.0
2014-Oct-17 09:33N 54°38' W 008°26'0 0.0
2014-Oct-17 08:33N 54°38' W 008°26'0 0.0
2014-Oct-17 07:33N 54°38' W 008°26'0 0.0
2014-Oct-17 06:33N 54°38' W 008°26'5 4.9
2014-Oct-17 05:33N 54°35' W 008°33'  
2014-Oct-13 18:32N 54°36' W 008°37'6 6.6
2014-Oct-13 17:33N 54°38' W 008°26'0 0.0
2014-Oct-13 16:33N 54°38' W 008°26'0 0.0
2014-Oct-13 15:33N 54°38' W 008°26'0 0.0
2014-Oct-13 14:33N 54°38' W 008°26'0 0.0
2014-Oct-13 13:33N 54°38' W 008°26'0 0.0
2014-Oct-13 12:33N 54°38' W 008°26'0 0.0
2014-Oct-13 11:33N 54°38' W 008°26'0 0.0
2014-Oct-13 10:33N 54°38' W 008°26'0 0.0
2014-Oct-13 09:33N 54°38' W 008°26'0 0.0
2014-Oct-13 08:33N 54°38' W 008°26'0 0.0
2014-Oct-13 07:33N 54°38' W 008°26'0 0.0
2014-Oct-13 06:33N 54°38' W 008°26'0 0.0
2014-Oct-13 05:33N 54°38' W 008°26'0 0.0
2014-Oct-13 04:33N 54°38' W 008°26'0 0.0
2014-Oct-13 03:33N 54°38' W 008°26'0 0.0
2014-Oct-13 02:33N 54°38' W 008°26'0 0.0
2014-Oct-13 01:34N 54°38' W 008°26'0 0.0
2014-Oct-13 00:33N 54°38' W 008°26'0 0.0
2014-Oct-12 23:33N 54°38' W 008°26'0 0.0
2014-Oct-12 22:34N 54°38' W 008°26'0 0.0
2014-Oct-12 21:33N 54°38' W 008°26'0 0.0
2014-Oct-12 20:33N 54°38' W 008°26'0 0.0
2014-Oct-12 19:33N 54°38' W 008°26'0 0.0
2014-Oct-12 18:33N 54°38' W 008°26'0 0.0
2014-Oct-12 17:33N 54°38' W 008°26'0 0.0
2014-Oct-12 16:33N 54°38' W 008°26'0 0.0
2014-Oct-12 15:33N 54°38' W 008°26'0 0.0
2014-Oct-12 14:33N 54°38' W 008°26'0 0.0
2014-Oct-12 13:33N 54°38' W 008°26'0 0.0
2014-Oct-12 12:33N 54°38' W 008°26'0 0.0
2014-Oct-12 11:33N 54°38' W 008°26'0 0.0
2014-Oct-12 10:33N 54°38' W 008°26'0 0.0
2014-Oct-12 09:33N 54°38' W 008°26'0 0.0
2014-Oct-12 08:34N 54°38' W 008°26'3 2.6
2014-Oct-12 07:33N 54°36' W 008°29'  
Track history (hours):
 
Tides and Currents Weather Stations Pressure Air Temp Water Temp Dewpoint Dewpoint Depression Visibility Wind Speed Wind Dir Waves Ship Positions

Brendelen

Last reported at 2014-Oct-21 19:18 UTC. Time now 2014-Oct-24 23:50 UTC.
Position N 51°37' W 009°56'.

Length 64 m; draft 7.8 m.

Type: Fishing. MMSI: 250512000.

Date/timePositionNaut miles runAvg speedWind from/ knotsBaromVisibWave heightAir tempDewpointWater temp
2014-Oct-21 19:18N 51°37' W 009°56'0 0.3
2014-Oct-21 18:33N 51°37' W 009°56'2 1.8
2014-Oct-21 17:33N 51°38' W 009°54'1 0.6
2014-Oct-21 16:33N 51°39' W 009°53'141 9.9
2014-Oct-21 02:20N 53°57' W 010°38'14 7.9
2014-Oct-21 00:33N 54°09' W 010°26'66 9.0
2014-Oct-20 17:11N 54°33' W 008°40'711.6
2014-Oct-20 16:34N 54°36' W 008°29'3 2.6
2014-Oct-20 15:33N 54°38' W 008°27'0 0.0
2014-Oct-20 14:34N 54°38' W 008°27'0 0.0
2014-Oct-20 13:33N 54°38' W 008°27'0 0.0
2014-Oct-20 12:33N 54°38' W 008°27'0 0.0
2014-Oct-20 11:33N 54°38' W 008°27'0 0.0
2014-Oct-20 10:33N 54°38' W 008°27'0 0.0
2014-Oct-20 09:33N 54°38' W 008°27'0 0.0
2014-Oct-20 08:33N 54°38' W 008°27'0 0.0
2014-Oct-20 07:33N 54°38' W 008°27'0 0.0
2014-Oct-20 06:33N 54°38' W 008°27'0 0.0
2014-Oct-20 05:33N 54°38' W 008°27'0 0.0
2014-Oct-20 04:33N 54°38' W 008°27'0 0.0
2014-Oct-20 03:33N 54°38' W 008°27'0 0.0
2014-Oct-20 02:34N 54°38' W 008°27'0 0.0
2014-Oct-20 01:33N 54°38' W 008°27'0 0.0
2014-Oct-20 00:33N 54°38' W 008°27'0 0.0
2014-Oct-19 23:33N 54°38' W 008°27'0 0.0
2014-Oct-19 22:33N 54°38' W 008°27'0 0.0
2014-Oct-19 21:33N 54°38' W 008°27'0 0.0
2014-Oct-19 20:33N 54°38' W 008°27'0 0.0
2014-Oct-19 19:33N 54°38' W 008°27'0 0.0
2014-Oct-19 18:33N 54°38' W 008°27'0 0.0
2014-Oct-19 17:33N 54°38' W 008°27'0 0.0
2014-Oct-19 16:33N 54°38' W 008°27'0 0.0
2014-Oct-19 15:33N 54°38' W 008°27'0 0.0
2014-Oct-19 14:33N 54°38' W 008°27'0 0.0
2014-Oct-19 13:33N 54°38' W 008°27'0 0.0
2014-Oct-19 12:33N 54°38' W 008°27'0 0.0
2014-Oct-19 11:33N 54°38' W 008°27'0 0.0
2014-Oct-19 10:33N 54°38' W 008°27'0 0.0
2014-Oct-19 09:33N 54°38' W 008°27'0 0.0
2014-Oct-19 08:33N 54°38' W 008°27'0 0.0
2014-Oct-19 07:33N 54°38' W 008°27'0 0.0
2014-Oct-19 06:33N 54°38' W 008°27'0 0.0
2014-Oct-19 05:32N 54°38' W 008°27'0 0.0
2014-Oct-19 04:33N 54°38' W 008°27'0 0.0
2014-Oct-19 03:33N 54°38' W 008°27'0 0.0
2014-Oct-19 02:33N 54°38' W 008°27'0 0.0
2014-Oct-19 01:33N 54°38' W 008°27'0 0.0
2014-Oct-19 00:33N 54°38' W 008°27'0 0.0
2014-Oct-18 23:34N 54°38' W 008°27'0 0.0
2014-Oct-18 22:33N 54°38' W 008°27'0 0.0
2014-Oct-18 21:33N 54°38' W 008°27'0 0.0
2014-Oct-18 20:33N 54°38' W 008°27'0 0.0
2014-Oct-18 19:33N 54°38' W 008°27'0 0.0
2014-Oct-18 18:33N 54°38' W 008°27'0 0.0
2014-Oct-18 17:33N 54°38' W 008°27'0 0.0
2014-Oct-18 16:33N 54°38' W 008°27'0 0.0
2014-Oct-18 15:33N 54°38' W 008°27'0 0.0
2014-Oct-18 14:33N 54°38' W 008°27'0 0.0
2014-Oct-18 13:33N 54°38' W 008°27'0 0.0
2014-Oct-18 12:33N 54°38' W 008°27'0 0.0
2014-Oct-18 11:34N 54°38' W 008°27'0 0.0
2014-Oct-18 10:33N 54°38' W 008°27'0 0.0
2014-Oct-18 09:33N 54°38' W 008°27'0 0.0
2014-Oct-18 08:33N 54°38' W 008°27'0 0.0
2014-Oct-18 07:33N 54°38' W 008°27'0 0.0
2014-Oct-18 06:34N 54°38' W 008°27'0 0.0
2014-Oct-18 05:33N 54°38' W 008°27'0 0.0
2014-Oct-18 04:33N 54°38' W 008°27'0 0.0
2014-Oct-18 03:33N 54°38' W 008°27'0 0.0
2014-Oct-18 02:33N 54°38' W 008°27'0 0.0
2014-Oct-18 01:33N 54°38' W 008°27'0 0.0
2014-Oct-18 00:33N 54°38' W 008°27'0 0.0
2014-Oct-17 23:33N 54°38' W 008°27'0 0.0
2014-Oct-17 22:33N 54°38' W 008°27'0 0.0
2014-Oct-17 21:33N 54°38' W 008°27'0 0.0
2014-Oct-17 20:34N 54°38' W 008°27'0 0.0
2014-Oct-17 19:33N 54°38' W 008°27'0 0.0
2014-Oct-17 18:33N 54°38' W 008°27'0 0.0
2014-Oct-17 17:33N 54°38' W 008°27'0 0.0
2014-Oct-17 16:33N 54°38' W 008°27'0 0.0
2014-Oct-17 15:34N 54°38' W 008°27'0 0.0
2014-Oct-17 14:33N 54°38' W 008°27'0 0.0
2014-Oct-17 13:33N 54°38' W 008°27'0 0.0
2014-Oct-17 12:33N 54°38' W 008°27'0 0.0
2014-Oct-17 11:33N 54°38' W 008°27'0 0.4
2014-Oct-17 10:33N 54°38' W 008°26'0 0.0
2014-Oct-17 09:33N 54°38' W 008°26'0 0.0
2014-Oct-17 08:33N 54°38' W 008°26'0 0.0
2014-Oct-17 07:33N 54°38' W 008°26'0 0.0
2014-Oct-17 06:33N 54°38' W 008°26'5 4.9
2014-Oct-17 05:33N 54°35' W 008°33'  
2014-Oct-13 18:32N 54°36' W 008°37'6 6.6
2014-Oct-13 17:33N 54°38' W 008°26'0 0.0
2014-Oct-13 16:33N 54°38' W 008°26'0 0.0
2014-Oct-13 15:33N 54°38' W 008°26'0 0.0
2014-Oct-13 14:33N 54°38' W 008°26'0 0.0
2014-Oct-13 13:33N 54°38' W 008°26'0 0.0
2014-Oct-13 12:33N 54°38' W 008°26'0 0.0
2014-Oct-13 11:33N 54°38' W 008°26'0 0.0
2014-Oct-13 10:33N 54°38' W 008°26'0 0.0
2014-Oct-13 09:33N 54°38' W 008°26'0 0.0
2014-Oct-13 08:33N 54°38' W 008°26'0 0.0
2014-Oct-13 07:33N 54°38' W 008°26'0 0.0
2014-Oct-13 06:33N 54°38' W 008°26'0 0.0
2014-Oct-13 05:33N 54°38' W 008°26'0 0.0
2014-Oct-13 04:33N 54°38' W 008°26'0 0.0
2014-Oct-13 03:33N 54°38' W 008°26'0 0.0
2014-Oct-13 02:33N 54°38' W 008°26'0 0.0
2014-Oct-13 01:34N 54°38' W 008°26'0 0.0
2014-Oct-13 00:33N 54°38' W 008°26'0 0.0
2014-Oct-12 23:33N 54°38' W 008°26'0 0.0
2014-Oct-12 22:34N 54°38' W 008°26'0 0.0
2014-Oct-12 21:33N 54°38' W 008°26'0 0.0
2014-Oct-12 20:33N 54°38' W 008°26'0 0.0
2014-Oct-12 19:33N 54°38' W 008°26'0 0.0
2014-Oct-12 18:33N 54°38' W 008°26'0 0.0
2014-Oct-12 17:33N 54°38' W 008°26'0 0.0
2014-Oct-12 16:33N 54°38' W 008°26'0 0.0
2014-Oct-12 15:33N 54°38' W 008°26'0 0.0
2014-Oct-12 14:33N 54°38' W 008°26'0 0.0
2014-Oct-12 13:33N 54°38' W 008°26'0 0.0
2014-Oct-12 12:33N 54°38' W 008°26'0 0.0
2014-Oct-12 11:33N 54°38' W 008°26'0 0.0
2014-Oct-12 10:33N 54°38' W 008°26'0 0.0
2014-Oct-12 09:33N 54°38' W 008°26'0 0.0
2014-Oct-12 08:34N 54°38' W 008°26'3 2.6
2014-Oct-12 07:33N 54°36' W 008°29'  

Dump ship's entire track history